createdAt,value
2017-09-27T00:00:23.708Z,94.90
2017-09-27T00:02:52.571Z,94.60
2017-09-27T00:05:21.420Z,94.40
2017-09-27T00:07:50.849Z,94.10
2017-09-27T00:10:19.693Z,94.00
2017-09-27T00:12:48.578Z,94.10
2017-09-27T00:15:17.431Z,94.10
2017-09-27T00:17:46.282Z,94.00
2017-09-27T00:20:15.118Z,93.90
2017-09-27T00:22:43.969Z,94.00
2017-09-27T00:25:14.752Z,94.00
2017-09-27T00:27:43.647Z,94.00
2017-09-27T00:30:12.486Z,94.20
2017-09-27T00:32:41.338Z,94.50
2017-09-27T00:35:10.177Z,95.00
2017-09-27T00:37:39.782Z,95.40
2017-09-27T00:40:09.405Z,95.30
2017-09-27T00:42:38.253Z,95.20
2017-09-27T00:45:07.092Z,95.10
2017-09-27T00:47:35.933Z,94.90
2017-09-27T00:50:04.785Z,94.80
2017-09-27T00:52:33.636Z,95.00
2017-09-27T00:55:03.049Z,95.20
2017-09-27T00:57:33.117Z,95.60
2017-09-27T01:00:01.980Z,95.50
2017-09-27T01:02:30.814Z,95.80
2017-09-27T01:04:59.678Z,95.70
2017-09-27T01:07:28.514Z,95.40
2017-09-27T01:09:57.364Z,95.40
2017-09-27T01:12:26.219Z,95.30
2017-09-27T01:14:55.831Z,95.10
2017-09-27T01:17:25.444Z,95.30
2017-09-27T01:19:53.934Z,95.30
2017-09-27T01:22:22.774Z,95.60
2017-09-27T01:24:50.926Z,95.60
2017-09-27T01:27:19.701Z,95.60
2017-09-27T01:29:48.214Z,95.60
2017-09-27T01:32:17.053Z,95.60
2017-09-27T01:34:45.552Z,95.50
2017-09-27T01:37:14.061Z,96.10
2017-09-27T01:39:42.906Z,96.40
2017-09-27T01:42:11.827Z,96.40
2017-09-27T01:44:39.990Z,96.40
2017-09-27T01:47:08.489Z,96.40
2017-09-27T01:49:36.986Z,96.10
2017-09-27T01:52:06.061Z,96.00
2017-09-27T01:54:34.241Z,95.90
2017-09-27T01:57:02.757Z,95.70
2017-09-27T01:59:31.714Z,96.00
2017-09-27T02:02:00.206Z,95.70
2017-09-27T02:04:29.053Z,95.80
2017-09-27T02:06:57.903Z,95.80
2017-09-27T02:09:26.750Z,95.80
2017-09-27T02:11:56.508Z,95.90
2017-09-27T02:14:25.349Z,95.80
2017-09-27T02:16:54.197Z,95.80
2017-09-27T02:19:23.038Z,96.00
2017-09-27T02:21:51.894Z,95.90
2017-09-27T02:24:20.746Z,96.10
2017-09-27T02:26:50.537Z,96.20
2017-09-27T02:29:19.382Z,96.90
2017-09-27T02:31:49.000Z,97.90
2017-09-27T02:34:18.620Z,97.50
2017-09-27T02:36:48.345Z,97.30
2017-09-27T02:39:17.023Z,97.30
2017-09-27T02:41:45.878Z,97.20
2017-09-27T02:44:16.080Z,97.40
2017-09-27T02:46:44.754Z,97.40
2017-09-27T02:49:13.606Z,97.30
2017-09-27T02:51:43.228Z,97.00
2017-09-27T02:54:12.084Z,97.00
2017-09-27T02:56:41.165Z,96.90
2017-09-27T02:59:10.003Z,97.10
2017-09-27T03:01:40.473Z,97.00
2017-09-27T03:04:09.328Z,97.10
2017-09-27T03:06:38.167Z,97.00
2017-09-27T03:09:07.018Z,96.90
2017-09-27T03:11:36.655Z,97.10
2017-09-27T03:14:05.509Z,97.20
2017-09-27T03:16:35.219Z,97.20
2017-09-27T03:19:05.063Z,97.30
2017-09-27T03:21:34.428Z,97.30
2017-09-27T03:24:03.310Z,97.50
2017-09-27T03:26:32.935Z,98.30
2017-09-27T03:29:01.781Z,98.30
2017-09-27T03:31:30.627Z,98.50
2017-09-27T03:33:59.479Z,98.20
2017-09-27T03:36:28.405Z,97.90
2017-09-27T03:38:57.259Z,97.90
2017-09-27T03:41:26.115Z,98.00
2017-09-27T03:43:54.962Z,98.10
2017-09-27T03:46:24.573Z,98.10
2017-09-27T03:48:53.894Z,98.10
2017-09-27T03:51:23.195Z,98.10
2017-09-27T03:53:52.054Z,98.50
2017-09-27T03:56:21.690Z,98.60
2017-09-27T03:58:50.344Z,98.50
2017-09-27T04:01:19.996Z,98.20
2017-09-27T04:03:48.833Z,98.00
2017-09-27T04:06:17.670Z,97.80
2017-09-27T04:08:47.102Z,97.70
2017-09-27T04:11:15.947Z,97.50
2017-09-27T04:13:45.553Z,97.40
2017-09-27T04:16:15.158Z,97.50
2017-09-27T04:18:44.766Z,97.50
2017-09-27T04:21:14.379Z,97.60
2017-09-27T04:23:43.227Z,97.50
2017-09-27T04:26:12.178Z,97.50
2017-09-27T04:28:41.035Z,97.40
2017-09-27T04:31:09.877Z,97.50
2017-09-27T04:33:38.733Z,97.50
2017-09-27T04:36:08.371Z,97.40
2017-09-27T04:38:37.218Z,97.30
2017-09-27T04:41:06.838Z,97.80
2017-09-27T04:43:36.446Z,98.00
2017-09-27T04:46:06.061Z,97.80
2017-09-27T04:48:35.675Z,97.60
2017-09-27T04:51:05.315Z,97.60
2017-09-27T04:53:34.167Z,97.50
2017-09-27T04:56:03.789Z,97.40
2017-09-27T04:58:32.640Z,97.40
2017-09-27T05:01:01.474Z,97.40
2017-09-27T05:03:30.034Z,97.40
2017-09-27T05:05:59.654Z,97.40
2017-09-27T05:08:43.245Z,97.30
2017-09-27T05:11:11.901Z,97.30
2017-09-27T05:13:40.755Z,97.20
2017-09-27T05:16:10.362Z,97.10
2017-09-27T05:18:39.026Z,97.10
2017-09-27T05:21:07.878Z,97.40
2017-09-27T05:23:36.719Z,97.10
2017-09-27T05:26:05.577Z,97.10
2017-09-27T05:28:34.188Z,97.30
2017-09-27T05:31:03.032Z,97.20
2017-09-27T05:33:31.889Z,97.20
2017-09-27T05:36:01.497Z,97.30
2017-09-27T05:38:31.138Z,97.40
2017-09-27T05:41:01.725Z,97.30
2017-09-27T05:43:30.585Z,97.30
2017-09-27T05:46:00.343Z,97.30
2017-09-27T05:48:43.601Z,97.40
2017-09-27T05:51:12.455Z,97.40
2017-09-27T05:53:41.837Z,97.30
2017-09-27T05:56:10.683Z,96.90
2017-09-27T05:58:39.567Z,97.00
2017-09-27T06:01:08.437Z,97.00
2017-09-27T06:03:38.057Z,96.60
2017-09-27T06:06:07.689Z,96.80
2017-09-27T06:08:36.553Z,96.50
2017-09-27T06:11:06.172Z,96.10
2017-09-27T06:13:36.687Z,95.90
2017-09-27T06:16:06.343Z,95.60
2017-09-27T06:18:35.183Z,95.60
2017-09-27T06:21:04.802Z,95.50
2017-09-27T06:23:35.534Z,95.40
2017-09-27T06:26:05.161Z,95.30
2017-09-27T06:28:34.870Z,95.20
2017-09-27T06:31:03.599Z,95.20
2017-09-27T06:33:32.486Z,95.10
2017-09-27T06:36:01.621Z,95.10
2017-09-27T06:38:31.229Z,94.80
2017-09-27T06:41:01.814Z,94.80
2017-09-27T06:43:30.653Z,94.70
2017-09-27T06:46:01.721Z,94.70
2017-09-27T06:48:30.578Z,94.70
2017-09-27T06:51:00.311Z,94.60
2017-09-27T06:53:30.006Z,94.60
2017-09-27T06:58:34.138Z,94.60
2017-09-27T07:01:03.730Z,94.30
2017-09-27T07:03:32.775Z,94.10
2017-09-27T07:06:01.621Z,93.90
2017-09-27T07:08:30.469Z,94.00
2017-09-27T07:10:59.319Z,93.80
2017-09-27T07:13:28.190Z,93.40
2017-09-27T07:15:57.054Z,93.10
2017-09-27T07:18:26.373Z,92.90
2017-09-27T07:20:55.233Z,92.50
2017-09-27T07:23:24.079Z,92.30
2017-09-27T07:25:53.924Z,91.50
2017-09-27T07:28:23.735Z,91.50
2017-09-27T07:30:53.370Z,90.80
2017-09-27T07:33:22.230Z,90.40
2017-09-27T07:35:51.071Z,90.00
2017-09-27T07:38:19.954Z,89.20
2017-09-27T07:40:49.328Z,88.30
2017-09-27T07:43:18.173Z,87.90
2017-09-27T07:45:47.030Z,87.70
2017-09-27T07:48:15.895Z,87.60
2017-09-27T07:50:44.737Z,87.40
2017-09-27T07:53:14.153Z,86.90
2017-09-27T07:55:43.005Z,86.70
2017-09-27T07:58:11.862Z,86.40
2017-09-27T08:00:40.723Z,85.70
2017-09-27T08:03:09.578Z,85.20
2017-09-27T08:05:39.199Z,83.80
2017-09-27T08:08:08.055Z,83.80
2017-09-27T08:10:36.896Z,83.60
2017-09-27T08:13:06.143Z,82.40
2017-09-27T08:15:34.990Z,80.90
2017-09-27T08:18:03.833Z,79.90
2017-09-27T08:20:33.806Z,78.70
2017-09-27T08:23:02.682Z,78.00
2017-09-27T08:25:31.546Z,77.20
2017-09-27T08:28:01.154Z,76.30
2017-09-27T08:30:29.993Z,76.30
2017-09-27T08:32:59.469Z,76.00
2017-09-27T08:35:28.331Z,76.10
2017-09-27T08:37:57.184Z,75.60
2017-09-27T08:40:26.814Z,73.80
2017-09-27T08:42:55.662Z,73.80
2017-09-27T08:45:24.532Z,72.20
2017-09-27T08:47:53.385Z,71.40
2017-09-27T08:50:22.791Z,70.70
2017-09-27T08:52:52.378Z,69.60
2017-09-27T08:55:21.985Z,68.70
2017-09-27T08:57:50.854Z,68.70
2017-09-27T09:00:19.082Z,68.00
2017-09-27T09:02:48.693Z,66.50
2017-09-27T09:05:17.562Z,66.70
2017-09-27T09:07:46.221Z,66.50
2017-09-27T09:10:15.073Z,66.00
2017-09-27T09:12:44.165Z,65.50
2017-09-27T09:15:13.679Z,64.40
2017-09-27T09:17:43.688Z,65.20
2017-09-27T09:20:12.547Z,64.10
2017-09-27T09:22:41.883Z,63.30
2017-09-27T09:25:11.185Z,62.80
2017-09-27T09:27:40.049Z,62.50
2017-09-27T09:30:08.918Z,62.20
2017-09-27T09:32:39.361Z,62.10
2017-09-27T09:35:10.560Z,61.50
2017-09-27T09:37:40.931Z,61.40
2017-09-27T09:40:10.567Z,60.40
2017-09-27T09:42:39.428Z,60.40
2017-09-27T09:45:09.268Z,59.50
2017-09-27T09:47:38.126Z,59.50
2017-09-27T09:50:07.783Z,59.00
2017-09-27T09:52:36.658Z,59.00
2017-09-27T09:55:06.173Z,58.40
2017-09-27T09:57:36.097Z,58.20
2017-09-27T10:00:05.425Z,57.70
2017-09-27T10:02:34.290Z,57.90
2017-09-27T10:05:04.304Z,57.50
2017-09-27T10:07:33.918Z,56.80
2017-09-27T10:10:03.534Z,56.80
2017-09-27T10:12:32.449Z,56.30
2017-09-27T10:15:02.097Z,56.10
2017-09-27T10:17:31.470Z,56.10
2017-09-27T10:20:01.417Z,56.00
2017-09-27T10:22:30.356Z,55.80
2017-09-27T10:24:59.216Z,55.50
2017-09-27T10:27:28.618Z,55.50
2017-09-27T10:29:58.346Z,55.10
2017-09-27T10:32:27.202Z,55.20
2017-09-27T10:34:56.823Z,54.60
2017-09-27T10:37:25.682Z,54.50
2017-09-27T10:39:54.555Z,54.50
2017-09-27T10:42:23.399Z,54.30
2017-09-27T10:44:52.249Z,53.80
2017-09-27T10:47:21.105Z,54.00
2017-09-27T10:49:50.498Z,53.80
2017-09-27T10:52:20.114Z,53.90
2017-09-27T10:54:48.969Z,53.90
2017-09-27T10:57:18.673Z,53.40
2017-09-27T10:59:48.303Z,53.10
2017-09-27T11:02:17.150Z,53.00
2017-09-27T11:04:46.011Z,53.10
2017-09-27T11:07:15.555Z,52.90
2017-09-27T11:09:44.149Z,53.00
2017-09-27T11:12:13.170Z,53.00
2017-09-27T11:14:42.380Z,52.50
2017-09-27T11:17:11.762Z,52.60
2017-09-27T11:19:41.131Z,52.00
2017-09-27T11:22:09.970Z,52.00
2017-09-27T11:24:38.591Z,52.10
2017-09-27T11:27:08.058Z,52.00
2017-09-27T11:29:36.906Z,51.90
2017-09-27T11:32:05.486Z,51.90
2017-09-27T11:34:34.097Z,51.70
2017-09-27T11:37:03.837Z,51.40
2017-09-27T11:39:33.312Z,51.40
2017-09-27T11:42:01.883Z,51.20
2017-09-27T11:44:30.737Z,50.90
2017-09-27T11:46:59.934Z,50.90
2017-09-27T11:49:28.509Z,50.90
2017-09-27T11:51:57.098Z,50.90
2017-09-27T11:54:25.676Z,50.90
2017-09-27T11:56:54.255Z,50.70
2017-09-27T11:59:23.291Z,50.40
2017-09-27T12:01:53.440Z,50.00
2017-09-27T12:04:22.017Z,49.90
2017-09-27T12:06:50.875Z,49.80
2017-09-27T12:09:20.210Z,50.10
2017-09-27T12:11:48.779Z,50.30
2017-09-27T12:14:18.134Z,49.40
2017-09-27T12:16:46.733Z,49.40
2017-09-27T12:19:15.332Z,49.40
2017-09-27T12:21:44.693Z,49.00
2017-09-27T12:24:13.274Z,48.90
2017-09-27T12:26:41.861Z,48.60
2017-09-27T12:29:10.474Z,48.40
2017-09-27T12:31:39.037Z,48.20
2017-09-27T12:34:07.609Z,48.10
2017-09-27T12:36:36.192Z,48.00
2017-09-27T12:39:04.627Z,48.20
2017-09-27T12:41:33.229Z,48.00
2017-09-27T12:44:02.882Z,47.60
2017-09-27T12:46:31.481Z,47.50
2017-09-27T12:49:00.050Z,47.20
2017-09-27T12:51:28.658Z,46.90
2017-09-27T12:53:57.912Z,46.80
2017-09-27T12:56:26.491Z,46.00
2017-09-27T12:58:54.877Z,46.10
2017-09-27T13:01:23.458Z,46.00
2017-09-27T13:03:52.043Z,45.70
2017-09-27T13:06:20.631Z,45.40
2017-09-27T13:08:49.038Z,45.20
2017-09-27T13:11:17.635Z,44.70
2017-09-27T13:13:47.076Z,45.00
2017-09-27T13:16:16.419Z,45.20
2017-09-27T13:18:45.055Z,45.10
2017-09-27T13:21:14.475Z,45.50
2017-09-27T13:23:43.066Z,45.50
2017-09-27T13:26:11.685Z,45.60
2017-09-27T13:28:44.312Z,46.20
2017-09-27T13:31:14.314Z,47.40
2017-09-27T13:33:42.917Z,47.40
2017-09-27T13:36:12.699Z,47.70
2017-09-27T13:38:42.144Z,47.70
2017-09-27T13:41:10.730Z,47.80
2017-09-27T13:43:40.633Z,47.90
2017-09-27T13:46:09.975Z,47.10
2017-09-27T13:48:38.563Z,47.10
2017-09-27T13:51:07.902Z,46.60
2017-09-27T13:53:37.919Z,46.50
2017-09-27T13:56:06.490Z,46.30
2017-09-27T13:58:35.092Z,46.30
2017-09-27T14:01:03.664Z,46.00
2017-09-27T14:03:32.247Z,46.30
2017-09-27T14:06:00.831Z,45.40
2017-09-27T14:08:30.429Z,45.40
2017-09-27T14:10:59.030Z,45.30
2017-09-27T14:13:28.621Z,45.10
2017-09-27T14:15:57.215Z,45.20
2017-09-27T14:18:25.812Z,45.50
2017-09-27T14:20:55.384Z,46.20
2017-09-27T14:23:23.977Z,46.10
2017-09-27T14:25:52.576Z,46.20
2017-09-27T14:28:21.187Z,46.20
2017-09-27T14:30:50.548Z,46.60
2017-09-27T14:33:19.974Z,46.60
2017-09-27T14:35:48.874Z,46.90
2017-09-27T14:38:18.230Z,47.20
2017-09-27T14:40:47.866Z,47.30
2017-09-27T14:43:17.285Z,47.40
2017-09-27T14:45:46.142Z,47.60
2017-09-27T14:48:15.791Z,47.60
2017-09-27T14:50:44.665Z,47.60
2017-09-27T14:53:13.541Z,47.40
2017-09-27T14:55:42.381Z,47.50
2017-09-27T14:58:11.731Z,47.20
2017-09-27T15:00:40.587Z,47.10
2017-09-27T15:03:09.444Z,47.00
2017-09-27T15:05:38.297Z,46.80
2017-09-27T15:08:07.904Z,47.20
2017-09-27T15:10:36.757Z,47.20
2017-09-27T15:13:05.619Z,47.40
2017-09-27T15:15:34.214Z,47.30
2017-09-27T15:18:02.593Z,47.60
2017-09-27T15:20:31.170Z,47.70
2017-09-27T15:23:00.591Z,48.20
2017-09-27T15:25:29.436Z,48.50
2017-09-27T15:27:58.292Z,48.60
2017-09-27T15:30:26.947Z,48.70
2017-09-27T15:32:55.794Z,49.00
2017-09-27T15:35:25.406Z,50.00
2017-09-27T15:37:55.034Z,49.90
2017-09-27T15:40:23.903Z,49.90
2017-09-27T15:42:53.543Z,50.90
2017-09-27T15:45:22.398Z,50.80
2017-09-27T15:47:52.005Z,51.50
2017-09-27T15:50:21.638Z,51.90
2017-09-27T15:52:50.485Z,51.80
2017-09-27T15:55:19.343Z,52.20
2017-09-27T15:57:48.285Z,52.40
2017-09-27T16:00:17.904Z,52.60
2017-09-27T16:02:46.772Z,52.50
2017-09-27T16:05:15.602Z,52.70
2017-09-27T16:07:44.447Z,52.90
2017-09-27T16:10:13.297Z,53.10
2017-09-27T16:12:42.135Z,53.20
2017-09-27T16:15:10.977Z,53.40
2017-09-27T16:17:39.813Z,53.70
2017-09-27T16:20:08.682Z,54.00
2017-09-27T16:22:37.530Z,54.20
2017-09-27T16:25:06.395Z,54.50
2017-09-27T16:27:36.005Z,54.90
2017-09-27T16:30:04.877Z,54.70
2017-09-27T16:32:33.739Z,54.90
2017-09-27T16:35:03.498Z,55.20
2017-09-27T16:37:33.536Z,56.20
2017-09-27T16:40:02.394Z,55.60
2017-09-27T16:42:32.162Z,55.80
2017-09-27T16:45:01.006Z,55.90
2017-09-27T16:47:30.230Z,56.30
2017-09-27T16:49:59.099Z,56.60
2017-09-27T16:52:27.957Z,57.00
2017-09-27T16:54:56.804Z,58.20
2017-09-27T16:57:27.323Z,60.60
2017-09-27T16:59:56.217Z,60.60
2017-09-27T17:02:25.673Z,62.10
2017-09-27T17:04:54.881Z,61.90
2017-09-27T17:07:24.048Z,62.80
2017-09-27T17:09:52.897Z,63.60
2017-09-27T17:12:21.743Z,64.50
2017-09-27T17:14:52.018Z,65.20
2017-09-27T17:17:21.635Z,67.30
2017-09-27T17:19:50.491Z,67.20
2017-09-27T17:25:02.743Z,68.50
2017-09-27T17:27:31.633Z,69.00
2017-09-27T17:30:05.646Z,70.00
2017-09-27T17:32:35.279Z,70.70
2017-09-27T17:35:04.136Z,70.60
2017-09-27T17:37:33.659Z,71.20
2017-09-27T17:40:03.314Z,72.30
2017-09-27T17:42:32.350Z,72.30
2017-09-27T17:45:01.235Z,72.60
2017-09-27T17:47:30.101Z,73.20
2017-09-27T17:49:59.206Z,73.30
2017-09-27T17:52:28.076Z,73.60
2017-09-27T17:54:56.983Z,74.00
2017-09-27T17:57:28.823Z,74.20
2017-09-27T17:59:57.702Z,74.40
2017-09-27T18:02:26.563Z,74.80
2017-09-27T18:04:58.042Z,74.80
2017-09-27T18:07:29.437Z,74.90
2017-09-27T18:13:13.948Z,75.80
2017-09-27T18:15:52.365Z,75.80
2017-09-27T18:18:22.331Z,76.20
2017-09-27T18:20:51.022Z,76.10
2017-09-27T18:23:19.711Z,76.40
2017-09-27T18:25:48.432Z,76.80
2017-09-27T18:28:18.298Z,77.00
2017-09-27T18:30:47.849Z,77.40
2017-09-27T18:33:17.141Z,77.60
2017-09-27T18:35:47.369Z,78.00
2017-09-27T18:38:16.034Z,78.30
2017-09-27T18:40:44.905Z,79.00
2017-09-27T18:43:13.702Z,79.60
2017-09-27T18:45:42.574Z,79.60
2017-09-27T18:48:11.486Z,79.60
2017-09-27T18:50:40.343Z,79.80
2017-09-27T18:53:08.923Z,80.00
2017-09-27T18:55:37.786Z,80.10
2017-09-27T18:58:09.430Z,80.20
2017-09-27T19:00:39.919Z,80.70
2017-09-27T19:03:09.570Z,80.60
2017-09-27T19:05:39.268Z,80.90
2017-09-27T19:08:08.130Z,81.10
2017-09-27T19:10:36.997Z,81.20
2017-09-27T19:13:06.606Z,81.70
2017-09-27T19:15:36.540Z,81.90
2017-09-27T19:18:05.413Z,81.90
2017-09-27T19:20:35.945Z,82.00
2017-09-27T19:23:05.603Z,82.00
2017-09-27T19:25:34.462Z,82.10
2017-09-27T19:28:03.031Z,82.20
2017-09-27T19:30:32.686Z,82.40
2017-09-27T19:33:01.550Z,82.40
2017-09-27T19:35:30.429Z,82.40
2017-09-27T19:37:59.326Z,82.60
2017-09-27T19:40:28.087Z,82.60
2017-09-27T19:42:56.947Z,82.60
2017-09-27T19:45:25.932Z,83.30
2017-09-27T19:47:54.778Z,82.70
2017-09-27T19:50:24.388Z,82.60
2017-09-27T19:52:53.259Z,82.50
2017-09-27T19:55:22.151Z,82.50
2017-09-27T19:57:51.056Z,82.50
2017-09-27T20:00:20.705Z,82.50
2017-09-27T20:02:50.213Z,82.50
2017-09-27T20:05:20.008Z,82.50
2017-09-27T20:07:48.876Z,82.40
2017-09-27T20:10:19.358Z,82.30
2017-09-27T20:12:48.213Z,83.00
2017-09-27T20:17:50.634Z,82.50
2017-09-27T20:20:20.066Z,82.60
2017-09-27T20:22:48.926Z,82.70
2017-09-27T20:25:17.959Z,82.80
2017-09-27T20:27:46.822Z,82.90
2017-09-27T20:30:15.758Z,82.50
2017-09-27T20:32:45.965Z,83.00
2017-09-27T20:35:14.622Z,83.10
2017-09-27T20:37:43.537Z,83.50
2017-09-27T20:40:12.502Z,84.00
2017-09-27T20:42:42.302Z,84.40
2017-09-27T20:45:11.238Z,84.80
2017-09-27T20:47:40.081Z,85.00
2017-09-27T20:50:09.694Z,85.10
2017-09-27T20:52:38.784Z,85.10
2017-09-27T20:55:07.635Z,85.00
2017-09-27T20:57:37.076Z,85.00
2017-09-27T21:00:05.925Z,85.30
2017-09-27T21:02:34.774Z,85.30
2017-09-27T21:05:03.637Z,85.10
2017-09-27T21:07:32.307Z,85.10
2017-09-27T21:10:02.160Z,85.20
2017-09-27T21:12:30.819Z,85.20
2017-09-27T21:15:00.133Z,86.40
2017-09-27T21:17:28.787Z,86.50
2017-09-27T21:19:57.706Z,87.00
2017-09-27T21:22:26.558Z,86.90
2017-09-27T21:24:55.420Z,86.90
2017-09-27T21:27:24.268Z,86.70
2017-09-27T21:29:54.872Z,86.80
2017-09-27T21:32:24.641Z,87.00
2017-09-27T21:34:54.368Z,86.90
2017-09-27T21:37:23.251Z,87.20
2017-09-27T21:39:52.100Z,88.20
2017-09-27T21:42:21.716Z,88.40
2017-09-27T21:44:51.337Z,87.70
2017-09-27T21:47:20.180Z,87.70
2017-09-27T21:49:49.042Z,87.70
2017-09-27T21:52:17.886Z,88.00
2017-09-27T21:54:48.177Z,89.00
2017-09-27T21:57:17.043Z,89.10
2017-09-27T21:59:45.886Z,89.40
2017-09-27T22:02:16.319Z,90.10
2017-09-27T22:04:45.199Z,90.10
2017-09-27T22:07:14.040Z,90.00
2017-09-27T22:09:42.897Z,90.00
2017-09-27T22:12:12.509Z,89.80
2017-09-27T22:14:42.132Z,89.80
2017-09-27T22:17:10.981Z,89.80
2017-09-27T22:19:39.824Z,89.70
2017-09-27T22:22:10.412Z,89.70
2017-09-27T22:24:40.034Z,89.80
2017-09-27T22:27:09.688Z,89.70
2017-09-27T22:29:38.552Z,89.60
2017-09-27T22:32:08.137Z,89.60
2017-09-27T22:34:37.761Z,89.60
2017-09-27T22:37:07.362Z,89.60
2017-09-27T22:39:36.984Z,89.70
2017-09-27T22:42:05.840Z,89.70
2017-09-27T22:44:34.688Z,89.70
2017-09-27T22:47:03.530Z,89.70
2017-09-27T22:49:32.381Z,89.90
2017-09-27T22:52:01.232Z,90.00
2017-09-27T22:54:30.854Z,90.30
2017-09-27T22:56:59.706Z,90.30
2017-09-27T22:59:28.555Z,90.40
2017-09-27T23:01:57.423Z,90.30
2017-09-27T23:04:26.265Z,90.30
2017-09-27T23:06:55.118Z,90.30
2017-09-27T23:09:23.957Z,90.30
2017-09-27T23:11:52.802Z,90.30
2017-09-27T23:14:21.638Z,90.40
2017-09-27T23:16:50.483Z,90.40
2017-09-27T23:19:19.337Z,90.50
2017-09-27T23:21:49.498Z,90.90
2017-09-27T23:24:18.340Z,90.90
2017-09-27T23:26:47.966Z,91.20
2017-09-27T23:29:17.572Z,90.90
2017-09-27T23:31:47.947Z,90.90
2017-09-27T23:34:16.787Z,90.80
2017-09-27T23:36:46.406Z,90.90
2017-09-27T23:39:16.044Z,91.10
2017-09-27T23:41:44.892Z,91.10
2017-09-27T23:44:15.054Z,91.00
2017-09-27T23:46:43.901Z,91.00
2017-09-27T23:49:12.740Z,90.90
2017-09-27T23:51:41.590Z,90.80
2017-09-27T23:54:11.193Z,91.10
2017-09-27T23:56:40.802Z,91.30
2017-09-27T23:59:10.413Z,91.50
